Time;durP1;ratioP1;P1;durP2;ratioP2;P2;SDS_P1;SDS_P2;PMS_P1;PMS_P2;Temp;Humidity;BMP_temperature;BMP_pressure;BME280_temperature;BME280_humidity;BME280_pressure;Samples;Min_cycle;Max_cycle;Signal;HPM_P1;HPM_P2
2023/01/08 00:00:51;;;;;;;4.88;2.80;;;10.20;99.90;;;;;;5085539;28;20122;-62
2023/01/08 00:03:17;;;;;;;4.57;3.10;;;10.30;99.90;;;;;;5090561;28;20349;-62
2023/01/08 00:05:42;;;;;;;3.92;2.72;;;10.30;99.90;;;;;;5102636;28;20454;-60
2023/01/08 00:08:08;;;;;;;4.85;2.83;;;10.20;99.90;;;;;;5091790;28;20054;-62
2023/01/08 00:10:35;;;;;;;3.50;2.63;;;10.20;99.90;;;;;;5097869;28;20078;-62
2023/01/08 00:13:01;;;;;;;5.40;2.90;;;10.20;99.90;;;;;;5093461;28;20134;-63
2023/01/08 00:15:30;;;;;;;4.30;2.80;;;10.20;99.90;;;;;;5095649;28;20181;-62
2023/01/08 00:17:56;;;;;;;4.25;2.70;;;10.10;99.90;;;;;;5095941;28;20067;-62
2023/01/08 00:20:22;;;;;;;4.60;2.97;;;10.20;99.90;;;;;;5096657;28;20048;-62
2023/01/08 00:22:48;;;;;;;5.38;3.10;;;10.30;99.90;;;;;;5093100;28;20044;-62
2023/01/08 00:25:16;;;;;;;4.68;2.95;;;10.20;99.90;;;;;;5074814;28;20142;-61
2023/01/08 00:27:42;;;;;;;3.88;2.70;;;10.20;99.90;;;;;;5095762;28;20064;-63
2023/01/08 00:30:08;;;;;;;4.80;3.03;;;10.30;99.90;;;;;;5094617;28;20479;-62
2023/01/08 00:32:33;;;;;;;5.78;3.00;;;10.20;99.90;;;;;;5091516;28;20051;-60
2023/01/08 00:35:00;;;;;;;5.13;2.90;;;10.20;99.90;;;;;;5092194;28;20047;-62
2023/01/08 00:37:26;;;;;;;4.90;2.90;;;10.20;99.90;;;;;;5092121;28;20032;-62
2023/01/08 00:39:52;;;;;;;4.18;2.53;;;10.30;99.90;;;;;;5093121;28;20044;-62
2023/01/08 00:42:18;;;;;;;3.60;2.40;;;10.20;99.90;;;;;;5100529;28;20043;-61
2023/01/08 00:44:45;;;;;;;4.35;2.88;;;10.30;99.90;;;;;;5077442;28;20119;-62
2023/01/08 00:47:15;;;;;;;5.82;2.38;;;10.20;99.90;;;;;;5072825;28;20375;-64
2023/01/08 00:49:41;;;;;;;5.93;2.30;;;10.20;99.90;;;;;;5086837;28;20139;-63
2023/01/08 00:52:06;;;;;;;4.18;2.13;;;10.20;99.90;;;;;;5089554;28;20126;-62
2023/01/08 00:54:32;;;;;;;7.07;1.73;;;10.20;99.90;;;;;;5102388;28;20086;-64
2023/01/08 00:56:58;;;;;;;5.93;2.10;;;10.10;99.90;;;;;;5087447;28;20054;-63
2023/01/08 00:59:26;;;;;;;4.20;1.77;;;10.00;99.90;;;;;;5091268;28;20047;-62
2023/01/08 01:01:53;;;;;;;4.30;1.92;;;10.00;99.90;;;;;;5070821;28;20090;-62
2023/01/08 01:04:19;;;;;;;5.38;1.70;;;9.90;99.90;;;;;;5088244;28;20115;-63
2023/01/08 01:06:44;;;;;;;5.35;1.70;;;9.90;99.90;;;;;;5091464;28;20415;-61
2023/01/08 01:09:11;;;;;;;6.40;1.60;;;9.80;99.90;;;;;;5097420;28;20039;-62
2023/01/08 01:11:36;;;;;;;3.38;1.50;;;9.80;99.90;;;;;;5094294;28;20396;-62
2023/01/08 01:14:02;;;;;;;4.32;1.52;;;9.60;99.90;;;;;;5090071;28;20093;-63
2023/01/08 01:16:27;;;;;;;6.82;1.80;;;9.60;99.90;;;;;;5092472;28;20066;-61
2023/01/08 01:18:55;;;;;;;6.57;2.00;;;9.50;99.90;;;;;;5086214;28;20359;-62
2023/01/08 01:21:29;;;;;;;5.30;1.77;;;9.50;99.90;;;;;;5090808;28;20051;-60
2023/01/08 01:23:59;;;;;;;6.90;1.85;;;9.50;99.90;;;;;;5092302;28;20040;-61
2023/01/08 01:26:25;;;;;;;7.60;2.15;;;9.40;99.90;;;;;;5093625;28;20456;-60
2023/01/08 01:28:53;;;;;;;6.72;2.03;;;9.40;99.90;;;;;;5087781;28;20241;-61
2023/01/08 01:31:19;;;;;;;8.57;2.10;;;9.40;99.90;;;;;;5087741;28;20104;-61
2023/01/08 01:33:45;;;;;;;6.60;2.15;;;9.30;99.90;;;;;;5090673;28;20079;-61
2023/01/08 01:36:12;;;;;;;7.03;2.00;;;9.30;99.90;;;;;;5090073;28;20525;-62
2023/01/08 01:38:41;;;;;;;10.60;2.80;;;9.30;99.90;;;;;;5092767;28;20027;-61
2023/01/08 01:41:06;;;;;;;8.15;2.42;;;9.30;99.90;;;;;;5094955;28;20475;-62
2023/01/08 01:43:40;;;;;;;9.55;2.40;;;9.20;99.90;;;;;;5090010;28;20032;-61
2023/01/08 01:46:27;;;;;;;8.32;2.35;;;9.10;99.90;;;;;;5092241;28;20048;-60
2023/01/08 01:48:55;;;;;;;9.80;2.63;;;9.10;99.90;;;;;;5090526;28;20040;-64
2023/01/08 01:51:24;;;;;;;7.93;2.03;;;9.00;99.90;;;;;;5091233;28;20037;-61
2023/01/08 01:53:50;;;;;;;10.82;2.80;;;9.00;99.90;;;;;;5099546;28;20165;-62
2023/01/08 01:56:15;;;;;;;7.07;2.20;;;9.00;99.90;;;;;;5072773;28;20066;-62
2023/01/08 01:58:41;;;;;;;8.32;2.30;;;9.00;99.90;;;;;;5091635;28;20395;-62
2023/01/08 02:01:09;;;;;;;9.90;2.50;;;9.00;99.90;;;;;;5093902;28;20052;-61
2023/01/08 02:03:37;;;;;;;9.35;2.80;;;9.00;99.90;;;;;;5091214;28;20043;-63
2023/01/08 02:06:21;;;;;;;12.75;3.00;;;9.00;99.90;;;;;;5080877;28;20031;-61
2023/01/08 02:08:50;;;;;;;10.27;2.45;;;8.90;99.90;;;;;;5088331;28;20046;-59
2023/01/08 02:11:28;;;;;;;9.85;2.50;;;8.90;99.90;;;;;;5079165;28;20112;-62
2023/01/08 02:14:05;;;;;;;7.55;2.25;;;8.90;99.90;;;;;;5091845;28;20039;-61
2023/01/08 02:16:37;;;;;;;9.60;2.33;;;8.90;99.90;;;;;;5098098;28;20340;-63
2023/01/08 02:19:20;;;;;;;9.50;2.40;;;8.90;99.90;;;;;;5090534;28;20036;-61
2023/01/08 02:22:02;;;;;;;9.52;2.40;;;8.90;99.90;;;;;;5097438;28;20068;-61
2023/01/08 02:24:42;;;;;;;8.70;2.08;;;8.90;99.90;;;;;;5093637;28;20094;-59
2023/01/08 02:27:08;;;;;;;8.05;2.40;;;8.90;99.90;;;;;;5094192;28;20036;-60
2023/01/08 02:29:35;;;;;;;9.20;2.40;;;8.90;99.90;;;;;;5094811;28;20039;-62
2023/01/08 02:32:01;;;;;;;7.55;2.00;;;8.80;99.90;;;;;;5088336;28;20040;-63
2023/01/08 02:34:27;;;;;;;7.60;2.17;;;8.80;99.90;;;;;;5094243;28;20055;-64
2023/01/08 02:36:54;;;;;;;8.65;2.13;;;8.80;99.90;;;;;;5099281;28;20040;-62
2023/01/08 02:39:48;;;;;;;9.77;2.20;;;8.80;99.90;;;;;;5094069;28;20039;-61
2023/01/08 02:42:19;;;;;;;6.78;2.33;;;8.80;99.90;;;;;;5088131;28;20405;-63
2023/01/08 02:45:06;;;;;;;8.68;2.03;;;8.80;99.90;;;;;;5090707;28;20032;-62
2023/01/08 02:47:40;;;;;;;9.10;2.58;;;8.70;99.90;;;;;;5091740;28;20534;-63
2023/01/08 02:50:27;;;;;;;6.78;2.38;;;8.80;99.90;;;;;;5090067;28;20043;-62
2023/01/08 02:53:08;;;;;;;7.20;2.38;;;8.80;99.90;;;;;;5087826;28;20135;-62
2023/01/08 02:55:36;;;;;;;7.03;2.47;;;8.80;99.90;;;;;;5089701;28;20040;-62
2023/01/08 02:58:03;;;;;;;6.28;2.65;;;8.70;99.90;;;;;;5097150;28;20134;-63
2023/01/08 03:00:29;;;;;;;7.03;2.10;;;8.80;99.90;;;;;;5098083;28;20096;-62
2023/01/08 03:03:16;;;;;;;4.28;2.00;;;8.70;99.90;;;;;;5090319;28;20032;-63
2023/01/08 03:05:47;;;;;;;6.78;3.00;;;8.70;99.90;;;;;;5088327;28;20031;-63
2023/01/08 03:08:13;;;;;;;4.50;2.25;;;8.80;99.90;;;;;;5096186;28;20119;-64
2023/01/08 03:10:41;;;;;;;6.43;2.50;;;8.80;99.90;;;;;;5092116;28;20028;-63
2023/01/08 03:13:20;;;;;;;6.97;3.10;;;8.80;99.90;;;;;;5088259;28;20441;-64
2023/01/08 03:15:50;;;;;;;5.13;2.40;;;8.80;99.90;;;;;;5088432;28;20130;-62
2023/01/08 03:18:22;;;;;;;5.85;3.00;;;8.90;99.90;;;;;;5089718;28;20066;-62
2023/01/08 03:20:49;;;;;;;4.63;2.55;;;8.90;99.90;;;;;;5090915;28;20132;-63
2023/01/08 03:23:18;;;;;;;5.70;2.78;;;8.90;99.90;;;;;;5092946;28;20448;-61
2023/01/08 03:25:46;;;;;;;5.78;2.80;;;8.90;99.90;;;;;;5088298;28;20036;-62
2023/01/08 03:28:18;;;;;;;5.50;2.85;;;9.00;99.90;;;;;;5094032;28;20356;-63
2023/01/08 03:30:45;;;;;;;5.53;2.70;;;9.00;99.90;;;;;;5085995;28;20036;-64
2023/01/08 03:33:12;;;;;;;4.50;2.75;;;9.00;99.90;;;;;;5069726;28;20060;-61
2023/01/08 03:35:40;;;;;;;8.40;3.03;;;9.00;99.90;;;;;;5084931;28;20044;-62
2023/01/08 03:38:13;;;;;;;6.78;3.00;;;9.00;99.90;;;;;;5093433;28;20040;-60
2023/01/08 03:40:44;;;;;;;8.00;3.22;;;9.00;99.90;;;;;;5087782;28;20036;-62
2023/01/08 03:43:10;;;;;;;6.70;3.00;;;9.10;99.90;;;;;;5100996;28;20052;-64
2023/01/08 03:45:41;;;;;;;6.85;3.10;;;9.10;99.90;;;;;;5101811;28;20337;-63
2023/01/08 03:48:07;;;;;;;6.20;2.78;;;9.20;99.90;;;;;;5089905;28;20036;-61
2023/01/08 03:50:33;;;;;;;5.15;2.63;;;9.20;99.90;;;;;;5102709;28;20082;-64
2023/01/08 03:52:59;;;;;;;7.25;3.00;;;9.20;99.90;;;;;;5095760;28;20063;-62
2023/01/08 03:55:25;;;;;;;6.90;3.78;;;9.20;99.90;;;;;;5101469;28;20046;-60
2023/01/08 03:57:50;;;;;;;5.07;2.85;;;9.20;99.90;;;;;;5091072;28;20032;-61
2023/01/08 04:00:16;;;;;;;7.05;3.10;;;9.30;99.90;;;;;;5074389;28;20468;-62
2023/01/08 04:02:42;;;;;;;4.55;2.95;;;9.30;99.90;;;;;;5071949;28;20035;-61
2023/01/08 04:05:09;;;;;;;6.38;3.28;;;9.20;99.90;;;;;;5087716;28;20037;-61
2023/01/08 04:07:35;;;;;;;5.65;2.85;;;9.30;99.90;;;;;;5096357;28;20062;-61
2023/01/08 04:10:01;;;;;;;7.85;2.70;;;9.30;99.90;;;;;;5097477;28;20441;-62
2023/01/08 04:12:26;;;;;;;5.90;2.50;;;9.20;99.90;;;;;;5092567;28;20038;-60
2023/01/08 04:14:52;;;;;;;3.97;2.70;;;9.20;99.90;;;;;;5092683;28;20142;-59
2023/01/08 04:17:17;;;;;;;4.85;2.33;;;9.30;99.90;;;;;;5090856;28;20437;-61
2023/01/08 04:19:44;;;;;;;5.00;2.30;;;9.30;99.90;;;;;;5087489;28;20132;-61
2023/01/08 04:22:10;;;;;;;8.30;2.80;;;9.30;99.90;;;;;;5087085;28;20074;-62
2023/01/08 04:24:36;;;;;;;7.03;2.60;;;9.30;99.90;;;;;;5096333;28;20417;-62
2023/01/08 04:27:02;;;;;;;5.50;2.67;;;9.30;99.90;;;;;;5088960;28;20059;-62
2023/01/08 04:29:27;;;;;;;5.55;2.30;;;9.20;99.90;;;;;;5092415;28;20119;-62
2023/01/08 04:31:53;;;;;;;6.47;2.33;;;9.20;99.90;;;;;;5091733;28;20356;-61
2023/01/08 04:34:18;;;;;;;4.43;2.35;;;9.20;99.90;;;;;;5090065;28;20040;-59
2023/01/08 04:36:44;;;;;;;4.55;2.33;;;9.20;99.90;;;;;;5087910;28;20117;-61
2023/01/08 04:39:10;;;;;;;5.70;2.00;;;9.20;99.90;;;;;;5091111;28;20024;-63
2023/01/08 04:41:36;;;;;;;3.70;2.05;;;9.20;99.90;;;;;;5091825;28;20032;-61
2023/01/08 04:44:07;;;;;;;5.70;2.22;;;9.10;99.90;;;;;;5103263;28;20510;-62
2023/01/08 04:46:33;;;;;;;3.60;2.22;;;9.20;99.90;;;;;;5097887;28;20124;-61
2023/01/08 04:48:58;;;;;;;4.47;2.30;;;9.10;99.90;;;;;;5088436;28;20083;-59
2023/01/08 04:51:25;;;;;;;4.05;2.08;;;9.10;99.90;;;;;;5070266;28;20048;-62
2023/01/08 04:53:50;;;;;;;4.70;2.15;;;9.10;99.90;;;;;;5081518;28;20509;-62
2023/01/08 04:56:16;;;;;;;3.10;2.03;;;9.00;99.90;;;;;;5077851;28;20090;-60
2023/01/08 04:58:42;;;;;;;3.85;2.00;;;9.00;99.90;;;;;;5090830;28;20119;-62
2023/01/08 05:01:17;;;;;;;5.00;2.38;;;9.00;99.90;;;;;;5098643;28;20031;-61
2023/01/08 05:03:43;;;;;;;3.05;1.90;;;9.00;99.90;;;;;;5095736;28;20032;-61
2023/01/08 05:06:08;;;;;;;7.32;2.65;;;9.10;99.90;;;;;;5101473;28;20374;-61
2023/01/08 05:08:36;;;;;;;4.88;2.05;;;8.90;99.90;;;;;;5097504;28;20033;-58
2023/01/08 05:11:03;;;;;;;5.40;2.28;;;8.90;99.90;;;;;;5093260;28;20168;-61
2023/01/08 05:13:28;;;;;;;6.13;2.30;;;8.90;99.90;;;;;;5102538;28;20035;-61
2023/01/08 05:15:59;;;;;;;5.03;2.17;;;8.90;99.90;;;;;;5101535;28;20070;-60
2023/01/08 05:18:25;;;;;;;5.97;2.65;;;8.90;99.90;;;;;;5093121;28;20091;-58
2023/01/08 05:20:52;;;;;;;6.03;2.40;;;8.90;99.90;;;;;;5102254;28;20469;-60
2023/01/08 05:23:18;;;;;;;5.18;2.55;;;9.00;99.90;;;;;;5089165;28;20084;-61
2023/01/08 05:25:43;;;;;;;6.00;2.30;;;8.90;99.90;;;;;;5093953;28;20119;-62
2023/01/08 05:28:09;;;;;;;4.32;2.67;;;8.90;99.90;;;;;;5098372;28;20047;-61
2023/01/08 05:30:36;;;;;;;5.85;2.70;;;8.90;99.90;;;;;;5078315;28;20055;-61
2023/01/08 05:33:01;;;;;;;5.78;2.80;;;8.80;99.90;;;;;;5098473;28;20048;-60
2023/01/08 05:35:27;;;;;;;5.30;2.70;;;8.90;99.90;;;;;;5092494;28;20055;-60
2023/01/08 05:37:54;;;;;;;6.72;3.28;;;8.90;99.90;;;;;;5094736;28;20044;-61
2023/01/08 05:40:19;;;;;;;5.18;3.03;;;8.70;99.90;;;;;;5076687;28;20438;-61
2023/01/08 05:42:45;;;;;;;6.95;2.78;;;8.80;99.90;;;;;;5089586;28;20040;-60
2023/01/08 05:45:11;;;;;;;4.85;3.15;;;8.80;99.90;;;;;;5095454;28;20042;-61
2023/01/08 05:47:36;;;;;;;5.53;2.90;;;8.80;99.90;;;;;;5073514;28;20032;-59
2023/01/08 05:50:02;;;;;;;6.18;2.90;;;8.70;99.90;;;;;;5097929;28;20040;-60
2023/01/08 05:52:28;;;;;;;5.10;2.80;;;8.80;99.90;;;;;;5095084;28;20036;-60
2023/01/08 05:54:53;;;;;;;9.27;3.55;;;8.60;99.90;;;;;;5095203;28;20123;-62
2023/01/08 05:57:19;;;;;;;4.65;2.97;;;8.60;99.90;;;;;;5093874;28;20729;-61
2023/01/08 05:59:44;;;;;;;5.40;2.90;;;8.60;99.90;;;;;;5091723;28;20416;-61
2023/01/08 06:02:10;;;;;;;6.50;2.88;;;8.50;99.90;;;;;;5093902;28;20047;-61
2023/01/08 06:04:35;;;;;;;5.55;2.65;;;8.60;99.90;;;;;;5094451;28;20040;-62
2023/01/08 06:07:01;;;;;;;5.70;2.90;;;8.60;99.90;;;;;;5091573;28;20104;-60
2023/01/08 06:09:27;;;;;;;8.00;2.95;;;8.50;99.90;;;;;;5094361;28;20122;-61
2023/01/08 06:11:52;;;;;;;7.90;2.40;;;8.70;99.90;;;;;;5089811;28;20063;-62
2023/01/08 06:14:18;;;;;;;6.22;2.58;;;8.50;99.90;;;;;;5089418;28;20038;-62
2023/01/08 06:16:44;;;;;;;7.82;2.78;;;8.60;99.90;;;;;;5094594;28;20047;-62
2023/01/08 06:19:10;;;;;;;6.68;2.30;;;8.60;99.90;;;;;;5091976;28;20036;-62
2023/01/08 06:21:37;;;;;;;6.90;2.67;;;8.60;99.90;;;;;;5102105;28;20058;-62
2023/01/08 06:24:03;;;;;;;9.07;2.55;;;8.60;99.90;;;;;;5074345;28;20123;-59
2023/01/08 06:26:28;;;;;;;4.82;2.47;;;8.60;99.90;;;;;;5074013;28;20484;-61
2023/01/08 06:28:54;;;;;;;6.18;2.60;;;8.60;99.90;;;;;;5076344;28;20043;-62
2023/01/08 06:31:19;;;;;;;7.47;2.53;;;8.70;99.90;;;;;;5074596;28;20066;-62
2023/01/08 06:33:45;;;;;;;5.82;2.28;;;8.50;99.90;;;;;;5077426;28;20039;-62
2023/01/08 06:36:10;;;;;;;6.55;2.10;;;8.60;99.90;;;;;;5071339;28;20048;-62
2023/01/08 06:38:36;;;;;;;8.85;2.53;;;8.60;99.90;;;;;;5072029;28;20363;-62
2023/01/08 06:41:04;;;;;;;6.35;2.15;;;8.50;99.90;;;;;;5073654;28;20043;-61
2023/01/08 06:43:29;;;;;;;5.03;1.92;;;8.60;99.90;;;;;;5090602;28;20464;-62
2023/01/08 06:45:57;;;;;;;4.93;1.88;;;8.50;99.90;;;;;;5081644;28;20032;-60
2023/01/08 06:48:23;;;;;;;4.55;1.85;;;8.40;99.90;;;;;;5096507;28;20043;-59
2023/01/08 06:50:51;;;;;;;4.03;1.60;;;8.40;99.90;;;;;;5070678;28;20040;-60
2023/01/08 06:53:16;;;;;;;5.60;2.13;;;8.40;99.90;;;;;;5096765;28;20520;-60
2023/01/08 06:55:42;;;;;;;4.32;1.52;;;8.40;99.90;;;;;;5095707;28;20162;-62
2023/01/08 06:58:11;;;;;;;6.88;1.77;;;8.40;99.90;;;;;;5095484;28;20039;-62
2023/01/08 07:00:37;;;;;;;6.47;1.90;;;8.30;99.90;;;;;;5097316;28;20071;-60
2023/01/08 07:03:02;;;;;;;7.82;2.50;;;8.40;99.90;;;;;;5094911;28;20047;-61
2023/01/08 07:05:28;;;;;;;6.88;2.45;;;8.30;99.90;;;;;;5091251;28;20434;-62
2023/01/08 07:07:54;;;;;;;6.10;1.70;;;8.30;99.90;;;;;;5092939;28;20571;-61
2023/01/08 07:10:21;;;;;;;9.18;2.15;;;8.20;99.90;;;;;;5073846;28;20056;-62
2023/01/08 07:12:47;;;;;;;7.20;1.92;;;8.10;99.90;;;;;;5091076;28;20036;-61
2023/01/08 07:15:14;;;;;;;9.75;2.05;;;8.10;99.90;;;;;;5097165;28;20091;-61
2023/01/08 07:17:40;;;;;;;6.70;2.13;;;8.00;99.90;;;;;;5099938;28;20044;-60
2023/01/08 07:20:08;;;;;;;7.35;2.00;;;7.90;99.90;;;;;;5088328;28;20357;-61
2023/01/08 07:22:34;;;;;;;6.82;2.53;;;7.90;99.90;;;;;;5090667;28;20047;-62
2023/01/08 07:24:59;;;;;;;5.80;2.17;;;7.80;99.90;;;;;;5090786;28;20036;-62
2023/01/08 07:27:25;;;;;;;7.95;2.60;;;7.80;99.90;;;;;;5097124;28;20032;-60
2023/01/08 07:29:50;;;;;;;6.72;2.65;;;7.80;99.90;;;;;;5093782;28;20044;-61
2023/01/08 07:32:16;;;;;;;8.85;2.72;;;7.70;99.90;;;;;;5092515;28;20062;-61
2023/01/08 07:34:42;;;;;;;6.25;2.60;;;7.70;99.90;;;;;;5095022;28;20045;-61
2023/01/08 07:37:08;;;;;;;9.80;3.10;;;7.70;99.90;;;;;;5098844;28;20048;-63
2023/01/08 07:39:34;;;;;;;8.52;2.60;;;7.60;99.90;;;;;;5090891;28;20050;-63
2023/01/08 07:41:59;;;;;;;7.82;2.63;;;7.60;99.90;;;;;;5095162;28;20510;-63
2023/01/08 07:44:25;;;;;;;7.45;2.60;;;7.50;99.90;;;;;;5094260;28;20040;-62
2023/01/08 07:46:50;;;;;;;7.13;2.60;;;7.50;99.90;;;;;;5091488;28;20036;-60
2023/01/08 07:49:16;;;;;;;8.02;2.50;;;7.60;99.90;;;;;;5090353;28;20047;-60
2023/01/08 07:51:41;;;;;;;7.50;2.40;;;7.50;99.90;;;;;;5071288;28;20044;-61
2023/01/08 07:54:07;;;;;;;7.90;2.63;;;7.50;99.90;;;;;;5089701;28;20039;-61
2023/01/08 07:56:33;;;;;;;5.93;2.20;;;7.50;99.90;;;;;;5095751;28;20036;-63
2023/01/08 07:58:59;;;;;;;6.05;2.42;;;7.50;99.90;;;;;;5086618;28;20085;-61
2023/01/08 08:01:25;;;;;;;6.45;2.20;;;7.40;99.90;;;;;;5091752;28;20405;-61
2023/01/08 08:03:51;;;;;;;8.13;2.15;;;7.50;99.90;;;;;;5096880;28;20109;-63
2023/01/08 08:06:16;;;;;;;7.35;2.50;;;7.40;99.90;;;;;;5092450;28;20375;-60
2023/01/08 08:08:47;;;;;;;7.25;2.10;;;7.50;99.90;;;;;;5091295;28;20066;-62
2023/01/08 08:11:13;;;;;;;9.82;3.00;;;7.40;99.90;;;;;;5072770;28;20071;-61
2023/01/08 08:13:43;;;;;;;8.15;2.22;;;7.40;99.90;;;;;;5092629;28;20067;-62
2023/01/08 08:16:09;;;;;;;7.88;2.22;;;7.40;99.90;;;;;;5097468;28;20040;-62
2023/01/08 08:18:35;;;;;;;7.57;2.10;;;7.40;99.90;;;;;;5087829;28;20062;-62
2023/01/08 08:21:01;;;;;;;5.78;2.10;;;7.40;99.90;;;;;;5090012;28;20524;-63
2023/01/08 08:23:27;;;;;;;7.30;2.10;;;7.30;99.90;;;;;;5089635;28;20089;-62
2023/01/08 08:25:54;;;;;;;5.07;2.10;;;7.40;99.90;;;;;;5070902;28;20035;-63
2023/01/08 08:28:20;;;;;;;4.28;1.90;;;7.30;99.90;;;;;;5075349;28;20433;-63
2023/01/08 08:30:45;;;;;;;6.35;2.15;;;7.40;99.90;;;;;;5101109;28;20448;-63
2023/01/08 08:33:11;;;;;;;8.10;1.90;;;7.40;99.90;;;;;;5109241;28;20063;-64
2023/01/08 08:35:37;;;;;;;5.13;1.83;;;7.40;99.90;;;;;;5106648;28;20372;-63
2023/01/08 08:38:03;;;;;;;5.38;2.10;;;7.30;99.90;;;;;;5098954;28;20047;-63
2023/01/08 08:40:29;;;;;;;6.13;2.03;;;7.30;99.90;;;;;;5088645;28;20048;-61
2023/01/08 08:43:00;;;;;;;6.45;2.38;;;7.30;99.90;;;;;;5095061;28;20037;-63
2023/01/08 08:45:35;;;;;;;6.97;2.03;;;7.40;99.90;;;;;;5101732;28;20040;-63
2023/01/08 08:48:01;;;;;;;5.78;2.15;;;7.40;99.90;;;;;;5092134;28;20044;-63
2023/01/08 08:50:27;;;;;;;5.45;1.65;;;7.50;99.90;;;;;;5100055;28;20039;-63
2023/01/08 08:52:58;;;;;;;5.63;2.17;;;7.60;99.90;;;;;;5078170;28;20127;-64
2023/01/08 08:55:24;;;;;;;7.13;1.98;;;7.60;99.90;;;;;;5086013;28;20032;-64
2023/01/08 08:57:49;;;;;;;6.55;2.55;;;7.50;99.90;;;;;;5091495;28;20036;-62
2023/01/08 09:00:15;;;;;;;5.78;2.20;;;7.70;99.90;;;;;;5091864;28;20036;-63
2023/01/08 09:02:41;;;;;;;6.50;2.30;;;7.60;99.90;;;;;;5091534;28;20046;-63
2023/01/08 09:05:07;;;;;;;5.93;2.03;;;7.70;99.90;;;;;;5090176;28;20040;-63
2023/01/08 09:07:32;;;;;;;8.52;2.03;;;7.70;99.90;;;;;;5090652;28;20345;-66
2023/01/08 09:09:58;;;;;;;6.50;2.00;;;7.70;99.90;;;;;;5092281;28;20036;-64
2023/01/08 09:12:24;;;;;;;5.47;1.88;;;7.70;99.90;;;;;;5092926;28;20027;-63
2023/01/08 09:14:55;;;;;;;6.47;2.00;;;7.80;99.90;;;;;;5091092;28;20035;-61
2023/01/08 09:17:21;;;;;;;5.53;2.38;;;7.80;99.90;;;;;;5087726;28;20051;-65
2023/01/08 09:19:47;;;;;;;6.57;2.28;;;7.70;99.90;;;;;;5092218;28;20440;-63
2023/01/08 09:22:12;;;;;;;8.35;2.40;;;7.70;99.90;;;;;;5094799;28;20482;-64
2023/01/08 09:24:38;;;;;;;8.88;2.35;;;7.80;99.90;;;;;;5095397;28;21190;-63
2023/01/08 09:27:03;;;;;;;9.20;2.83;;;7.90;99.90;;;;;;5095590;28;20036;-64
2023/01/08 09:29:29;;;;;;;4.28;1.95;;;7.90;99.90;;;;;;5094845;28;20085;-65
2023/01/08 09:31:56;;;;;;;6.80;2.25;;;7.90;99.90;;;;;;5093011;28;20480;-63
2023/01/08 09:34:21;;;;;;;5.85;2.15;;;7.90;99.90;;;;;;5094493;28;20044;-64
2023/01/08 09:36:47;;;;;;;6.75;2.13;;;8.00;99.90;;;;;;5093043;28;20043;-64
2023/01/08 09:39:13;;;;;;;6.70;2.42;;;8.00;99.90;;;;;;5093589;28;20098;-64
2023/01/08 09:41:42;;;;;;;9.13;2.03;;;8.10;99.90;;;;;;5081882;28;20075;-64
2023/01/08 09:44:17;;;;;;;8.00;2.47;;;8.20;99.90;;;;;;5104790;28;20038;-65
2023/01/08 09:46:44;;;;;;;6.45;2.20;;;8.30;99.90;;;;;;5069982;28;20036;-64
2023/01/08 09:49:18;;;;;;;10.32;2.92;;;8.30;99.90;;;;;;5091452;28;20039;-64
2023/01/08 09:51:44;;;;;;;9.35;2.22;;;8.30;99.90;;;;;;5092814;28;20040;-64
2023/01/08 09:54:14;;;;;;;8.43;2.30;;;8.40;99.90;;;;;;5076729;28;20040;-63
2023/01/08 09:56:40;;;;;;;10.85;2.65;;;8.40;99.90;;;;;;5087805;28;20079;-64
2023/01/08 09:59:09;;;;;;;8.45;2.17;;;8.40;99.90;;;;;;5093703;28;20072;-64
2023/01/08 10:01:38;;;;;;;9.32;2.35;;;8.40;99.90;;;;;;5085396;28;20469;-65
2023/01/08 10:04:25;;;;;;;11.55;2.33;;;8.40;99.90;;;;;;5090255;28;20032;-63
2023/01/08 10:06:55;;;;;;;9.00;2.38;;;8.40;99.90;;;;;;5078438;28;20093;-62
2023/01/08 10:09:26;;;;;;;8.25;2.50;;;8.40;99.90;;;;;;5089745;28;20357;-62
2023/01/08 10:11:55;;;;;;;9.43;2.33;;;8.50;99.90;;;;;;5108928;28;20048;-64
2023/01/08 10:14:29;;;;;;;11.65;2.78;;;8.60;99.90;;;;;;5101772;28;20497;-62
2023/01/08 10:16:59;;;;;;;11.40;2.55;;;8.60;99.90;;;;;;5105760;28;20040;-63
2023/01/08 10:19:25;;;;;;;11.35;2.88;;;8.70;99.90;;;;;;5110050;28;20046;-61
2023/01/08 10:21:51;;;;;;;14.32;2.65;;;8.70;99.90;;;;;;5110681;28;20111;-61
2023/01/08 10:24:30;;;;;;;9.77;2.72;;;8.70;99.90;;;;;;5110667;28;20039;-61
2023/01/08 10:27:24;;;;;;;11.90;2.75;;;8.80;99.90;;;;;;5107962;28;20071;-62
2023/01/08 10:29:50;;;;;;;12.60;3.30;;;8.80;99.90;;;;;;5102173;28;20043;-61
2023/01/08 10:32:21;;;;;;;8.30;2.60;;;8.90;99.90;;;;;;5102528;28;20054;-63
2023/01/08 10:34:50;;;;;;;12.80;2.70;;;8.90;99.90;;;;;;5108187;28;20096;-60
2023/01/08 10:37:23;;;;;;;10.23;2.70;;;8.90;99.90;;;;;;5106638;28;20028;-62
2023/01/08 10:39:50;;;;;;;9.38;2.63;;;9.00;99.90;;;;;;5107701;28;20040;-62
2023/01/08 10:42:18;;;;;;;10.57;3.03;;;9.00;99.90;;;;;;5101162;28;20035;-62
2023/01/08 10:45:05;;;;;;;10.82;2.78;;;9.10;99.90;;;;;;5095134;28;20384;-61
2023/01/08 10:47:34;;;;;;;12.10;2.88;;;9.10;99.90;;;;;;5098157;28;20169;-63
2023/01/08 10:50:04;;;;;;;10.32;2.78;;;9.10;99.90;;;;;;5091004;28;20032;-62
2023/01/08 10:52:32;;;;;;;8.25;2.60;;;9.20;99.90;;;;;;5091384;28;20058;-63
2023/01/08 10:55:23;;;;;;;7.75;2.45;;;9.20;99.90;;;;;;5092386;28;20040;-60
2023/01/08 10:57:54;;;;;;;10.20;2.88;;;9.20;99.90;;;;;;5098454;28;20048;-62
2023/01/08 11:00:24;;;;;;;10.38;2.35;;;9.20;99.90;;;;;;5091789;28;20051;-61
2023/01/08 11:02:50;;;;;;;7.47;2.33;;;9.10;99.90;;;;;;5092094;28;20460;-63
2023/01/08 11:05:16;;;;;;;11.13;3.20;;;9.10;99.90;;;;;;5093444;28;20448;-61
2023/01/08 11:07:46;;;;;;;12.23;2.55;;;9.10;99.90;;;;;;5091053;28;20033;-63
2023/01/08 11:10:23;;;;;;;10.85;2.88;;;9.20;99.90;;;;;;5092513;28;20040;-63
2023/01/08 11:13:00;;;;;;;8.40;2.65;;;9.20;99.90;;;;;;5092018;28;20032;-61
2023/01/08 11:15:41;;;;;;;13.13;2.75;;;9.20;99.90;;;;;;5092609;28;20046;-61
2023/01/08 11:18:20;;;;;;;10.02;3.20;;;9.30;99.90;;;;;;5089640;28;20368;-61
2023/01/08 11:20:47;;;;;;;7.07;2.78;;;9.30;99.90;;;;;;5085262;28;20365;-62
2023/01/08 11:23:22;;;;;;;12.15;3.40;;;9.30;99.90;;;;;;5093745;28;20471;-62
2023/01/08 11:26:09;;;;;;;14.98;3.20;;;9.30;99.90;;;;;;5092928;28;20032;-61
2023/01/08 11:29:01;;;;;;;8.80;3.13;;;9.30;99.90;;;;;;5089527;28;20032;-60
2023/01/08 11:31:50;;;;;;;9.48;2.60;;;9.40;99.90;;;;;;5085845;28;20040;-61
2023/01/08 11:34:51;;;;;;;9.52;2.35;;;9.40;99.90;;;;;;5085032;28;20055;-61
2023/01/08 11:37:23;;;;;;;9.05;2.75;;;9.30;99.90;;;;;;5091119;28;20040;-59
2023/01/08 11:39:51;;;;;;;9.70;2.60;;;9.30;99.90;;;;;;5093036;28;20035;-61
2023/01/08 11:42:53;;;;;;;6.53;2.60;;;9.40;99.90;;;;;;5075574;28;20024;-62
2023/01/08 11:45:27;;;;;;;8.07;2.28;;;9.50;99.90;;;;;;5093738;28;20460;-61
2023/01/08 11:48:08;;;;;;;8.27;2.60;;;9.50;99.90;;;;;;5091291;28;20358;-62
2023/01/08 11:50:57;;;;;;;8.90;2.67;;;9.50;99.90;;;;;;5090394;28;20165;-62
2023/01/08 11:53:34;;;;;;;9.88;3.05;;;9.50;99.90;;;;;;5089182;28;20071;-62
2023/01/08 11:56:16;;;;;;;9.23;2.58;;;9.50;99.90;;;;;;5082969;28;20089;-62
2023/01/08 11:59:02;;;;;;;11.68;2.88;;;9.50;99.90;;;;;;5088803;28;20067;-60
2023/01/08 12:02:02;;;;;;;9.57;2.92;;;9.50;99.90;;;;;;5086170;28;20044;-62
2023/01/08 12:05:00;;;;;;;9.48;2.42;;;9.50;99.90;;;;;;5057849;28;20444;-60
2023/01/08 12:08:00;;;;;;;8.95;2.40;;;9.50;99.90;;;;;;5077399;28;20051;-61
2023/01/08 12:10:49;;;;;;;9.95;2.42;;;9.60;99.90;;;;;;5089218;28;20382;-62
2023/01/08 12:13:43;;;;;;;11.02;2.90;;;9.50;99.90;;;;;;5084784;28;20044;-62
2023/01/08 12:16:41;;;;;;;11.30;2.85;;;9.50;99.90;;;;;;5089348;28;20035;-62
2023/01/08 12:19:25;;;;;;;10.52;3.28;;;9.50;99.90;;;;;;5090373;28;20089;-62
2023/01/08 12:22:04;;;;;;;;;;;9.50;99.90;;;;;;5070510;28;20044;-62
2023/01/08 12:24:54;;;;;;;9.68;2.65;;;9.50;99.90;;;;;;5091740;28;19915;-63
2023/01/08 12:27:38;;;;;;;11.10;2.90;;;9.50;99.90;;;;;;5089928;28;20032;-62
2023/01/08 12:30:23;;;;;;;10.13;2.70;;;9.60;99.90;;;;;;5090338;28;20102;-61
2023/01/08 12:32:57;;;;;;;10.80;2.67;;;9.60;99.90;;;;;;5088831;28;20052;-63
2023/01/08 12:35:39;;;;;;;7.53;2.58;;;9.60;99.90;;;;;;5083945;28;20056;-60
2023/01/08 12:38:38;;;;;;;9.88;3.00;;;9.60;99.90;;;;;;5088925;28;20036;-62
2023/01/08 12:41:09;;;;;;;11.32;2.60;;;9.60;99.90;;;;;;5095637;28;20040;-62
2023/01/08 12:43:58;;;;;;;7.78;2.72;;;9.60;99.90;;;;;;5072374;28;20101;-62
2023/01/08 12:46:27;;;;;;;9.43;2.90;;;9.70;99.90;;;;;;5089591;28;20442;-62
2023/01/08 12:48:54;;;;;;;8.65;2.50;;;9.70;99.90;;;;;;5070765;28;20079;-62
2023/01/08 12:51:30;;;;;;;8.38;2.38;;;9.70;99.90;;;;;;5088619;28;20097;-61
2023/01/08 12:54:36;;;;;;;9.30;2.40;;;9.70;99.90;;;;;;5071000;28;20024;-63
2023/01/08 12:57:12;;;;;;;8.13;1.92;;;9.70;99.90;;;;;;5091238;28;20444;-63
2023/01/08 12:59:49;;;;;;;9.90;2.20;;;9.70;99.90;;;;;;5064903;28;20036;-62
2023/01/08 13:02:37;;;;;;;13.30;2.78;;;9.70;99.90;;;;;;5077427;28;20040;-61
2023/01/08 13:05:28;;;;;;;8.57;2.47;;;9.70;99.90;;;;;;5085258;28;20119;-62
2023/01/08 13:08:03;;;;;;;7.47;2.10;;;9.70;99.90;;;;;;5090781;28;20058;-62
2023/01/08 13:10:34;;;;;;;7.13;1.90;;;9.70;99.90;;;;;;5072361;28;20095;-60